Time;durP1;ratioP1;P1;durP2;ratioP2;P2;SDS_P1;SDS_P2;PMS_P1;PMS_P2;Temp;Humidity;BMP_temperature;BMP_pressure;BME280_temperature;BME280_humidity;BME280_pressure;Samples;Min_cycle;Max_cycle;Signal;HPM_P1;HPM_P2
2022/09/05 00:01:47;;;;;;;3.80;3.50;;;23.00;51.40;;;;;;5058455;28;21207;-87
2022/09/05 00:04:22;;;;;;;7.40;3.90;;;23.00;51.30;;;;;;5022485;28;20445;-91
2022/09/05 00:06:59;;;;;;;3.77;3.47;;;22.90;51.20;;;;;;5026887;28;20841;-92
2022/09/05 00:09:50;;;;;;;3.20;2.97;;;22.90;51.30;;;;;;5036684;28;20473;-91
2022/09/05 00:12:18;;;;;;;4.03;3.60;;;22.90;51.20;;;;;;5060032;28;20460;-89
2022/09/05 00:15:00;;;;;;;3.60;3.30;;;22.90;51.20;;;;;;5078470;28;20463;-88
2022/09/05 00:17:37;;;;;;;4.27;3.87;;;22.80;51.30;;;;;;5059204;28;20530;-91
2022/09/05 00:20:12;;;;;;;3.93;3.40;;;22.80;51.40;;;;;;5061954;28;20448;-87
2022/09/05 00:22:48;;;;;;;5.63;3.77;;;22.80;51.40;;;;;;5077428;28;20465;-87
2022/09/05 00:25:44;;;;;;;4.17;3.77;;;22.70;51.30;;;;;;5061974;28;20450;-87
2022/09/05 00:28:20;;;;;;;3.73;3.43;;;22.80;51.70;;;;;;5063097;28;20806;-88
2022/09/05 00:31:07;;;;;;;4.20;3.90;;;22.60;51.60;;;;;;5060041;28;20444;-87
2022/09/05 00:33:42;;;;;;;4.13;3.63;;;22.60;51.70;;;;;;5034355;28;20475;-88
2022/09/05 00:36:22;;;;;;;3.73;3.33;;;22.60;51.80;;;;;;5078411;28;20919;-87
2022/09/05 00:39:03;;;;;;;4.10;3.80;;;22.50;51.80;;;;;;5079727;28;20459;-87
2022/09/05 00:41:31;;;;;;;5.27;3.70;;;22.50;51.80;;;;;;5050010;28;20484;-88
2022/09/05 00:44:01;;;;;;;4.70;3.80;;;22.50;52.00;;;;;;5059948;28;20447;-87
2022/09/05 00:46:30;;;;;;;3.80;3.10;;;22.40;52.10;;;;;;5060901;28;20906;-89
2022/09/05 00:49:10;;;;;;;4.43;3.93;;;22.40;52.10;;;;;;5058364;28;20439;-87
2022/09/05 00:51:43;;;;;;;3.90;3.60;;;22.30;52.20;;;;;;5081732;28;20976;-88
2022/09/05 00:54:24;;;;;;;6.63;4.07;;;22.30;52.30;;;;;;5060829;28;20948;-89
2022/09/05 00:57:02;;;;;;;4.27;3.90;;;22.30;52.40;;;;;;5049580;28;20463;-89
2022/09/05 00:59:52;;;;;;;4.10;3.70;;;22.30;52.50;;;;;;5060313;28;20640;-88
2022/09/05 01:02:36;;;;;;;3.90;3.60;;;22.30;52.50;;;;;;5059334;28;20437;-87
2022/09/05 01:05:16;;;;;;;3.57;3.27;;;22.20;52.80;;;;;;5074434;28;20536;-85
2022/09/05 01:07:58;;;;;;;5.20;3.80;;;22.20;53.30;;;;;;5081122;28;21005;-87
2022/09/05 01:10:38;;;;;;;3.70;3.40;;;22.10;53.50;;;;;;5057472;28;20460;-88
2022/09/05 01:13:20;;;;;;;3.77;3.37;;;22.00;53.40;;;;;;5077589;28;20479;-85
2022/09/05 01:15:54;;;;;;;3.47;3.20;;;22.00;53.00;;;;;;5058036;28;20448;-87
2022/09/05 01:18:39;;;;;;;4.60;4.20;;;22.00;52.90;;;;;;5062977;28;20483;-87
2022/09/05 01:21:31;;;;;;;4.03;3.73;;;22.10;52.60;;;;;;5063174;28;20444;-85
2022/09/05 01:24:16;;;;;;;6.53;3.73;;;22.00;53.10;;;;;;5080378;28;21104;-88
2022/09/05 01:27:01;;;;;;;5.87;4.33;;;21.90;53.40;;;;;;5048061;28;20471;-87
2022/09/05 01:29:39;;;;;;;5.30;3.50;;;21.70;54.10;;;;;;5060446;28;20444;-88
2022/09/05 01:32:19;;;;;;;3.60;3.30;;;21.70;53.30;;;;;;5067312;28;20456;-86
2022/09/05 01:34:56;;;;;;;4.37;3.97;;;21.80;53.20;;;;;;5072230;28;20510;-88
2022/09/05 01:37:31;;;;;;;4.53;3.70;;;21.80;53.10;;;;;;5080935;28;20467;-89
2022/09/05 01:40:12;;;;;;;4.30;3.90;;;21.80;53.10;;;;;;5083036;28;20444;-87
2022/09/05 01:42:54;;;;;;;11.13;4.30;;;21.80;53.00;;;;;;5061746;28;20531;-88
2022/09/05 01:45:30;;;;;;;4.07;3.70;;;21.80;53.10;;;;;;5078167;28;20488;-86
2022/09/05 01:48:04;;;;;;;4.90;3.80;;;21.80;52.80;;;;;;5083710;28;20982;-88
2022/09/05 01:50:46;;;;;;;4.23;3.93;;;21.80;52.80;;;;;;5067355;28;20453;-86
2022/09/05 01:53:25;;;;;;;3.40;3.20;;;21.80;52.80;;;;;;5060806;28;20468;-92
2022/09/05 01:56:14;;;;;;;4.10;3.80;;;21.80;52.80;;;;;;5083910;28;20955;-88
2022/09/05 01:58:51;;;;;;;3.90;3.60;;;21.80;52.70;;;;;;5032499;28;20448;-90
2022/09/05 02:01:28;;;;;;;3.77;3.47;;;21.80;52.70;;;;;;5060719;28;20455;-87
2022/09/05 02:04:19;;;;;;;4.77;4.27;;;21.70;52.80;;;;;;5081365;28;20970;-88
2022/09/05 02:06:53;;;;;;;4.03;3.63;;;21.70;53.00;;;;;;5083075;28;20521;-86
2022/09/05 02:09:40;;;;;;;4.23;3.80;;;21.70;53.00;;;;;;5063555;28;20811;-87
2022/09/05 02:12:22;;;;;;;4.30;3.90;;;21.60;52.80;;;;;;5052705;28;20637;-88
2022/09/05 02:14:57;;;;;;;3.70;3.40;;;21.60;52.60;;;;;;5065793;28;20452;-87
2022/09/05 02:17:34;;;;;;;3.67;3.37;;;21.60;52.70;;;;;;5061908;28;20472;-88
2022/09/05 02:20:12;;;;;;;4.40;4.10;;;21.50;52.90;;;;;;5065785;28;20801;-87
2022/09/05 02:22:43;;;;;;;4.10;3.80;;;21.50;52.90;;;;;;5084083;28;21108;-87
2022/09/05 02:25:18;;;;;;;3.63;3.33;;;21.40;53.00;;;;;;5081491;28;20428;-88
2022/09/05 02:27:50;;;;;;;3.57;3.27;;;21.40;53.10;;;;;;5080231;28;20548;-87
2022/09/05 02:30:19;;;;;;;5.60;4.40;;;21.40;52.90;;;;;;5081308;28;20506;-88
2022/09/05 02:33:05;;;;;;;7.10;4.40;;;21.40;53.00;;;;;;5051518;28;20468;-87
2022/09/05 02:35:40;;;;;;;3.80;3.50;;;21.40;52.90;;;;;;5086406;28;20441;-87
2022/09/05 02:38:13;;;;;;;3.97;3.40;;;21.40;52.90;;;;;;5084911;28;20467;-87
2022/09/05 02:40:44;;;;;;;3.97;3.67;;;21.30;52.80;;;;;;5037227;28;20451;-87
2022/09/05 02:43:22;;;;;;;4.37;3.87;;;21.30;52.90;;;;;;5079679;28;20420;-87
2022/09/05 02:45:58;;;;;;;3.80;3.40;;;21.30;52.80;;;;;;5044848;28;20464;-88
2022/09/05 02:48:35;;;;;;;3.80;3.50;;;21.30;52.60;;;;;;5066956;28;20974;-88
2022/09/05 02:51:10;;;;;;;4.37;3.90;;;21.20;52.60;;;;;;5079295;28;20543;-88
2022/09/05 02:53:41;;;;;;;4.47;3.53;;;21.10;52.80;;;;;;5049261;28;20467;-87
2022/09/05 02:56:31;;;;;;;4.20;3.80;;;21.10;53.00;;;;;;5081172;28;20467;-87
2022/09/05 02:59:10;;;;;;;4.30;3.80;;;21.10;53.00;;;;;;5062902;28;20530;-88
2022/09/05 03:01:59;;;;;;;3.73;3.43;;;21.00;53.00;;;;;;5080165;28;20454;-88
2022/09/05 03:04:35;;;;;;;4.30;3.90;;;21.00;53.20;;;;;;5081604;28;20458;-90
2022/09/05 03:07:16;;;;;;;4.37;3.97;;;21.00;53.00;;;;;;5083996;28;20967;-91
2022/09/05 03:10:04;;;;;;;4.40;4.00;;;21.00;52.90;;;;;;5085612;28;20435;-87
2022/09/05 03:13:08;;;;;;;4.10;3.73;;;21.00;53.10;;;;;;5082417;28;20471;-90
2022/09/05 03:16:13;;;;;;;3.93;3.43;;;20.90;53.20;;;;;;5048985;28;20455;-89
2022/09/05 03:19:09;;;;;;;3.57;3.27;;;20.90;53.10;;;;;;5058941;28;20530;-87
2022/09/05 03:22:30;;;;;;;4.63;4.03;;;20.90;53.20;;;;;;5060037;28;20458;-87
2022/09/05 03:25:25;;;;;;;4.47;4.03;;;20.90;52.60;;;;;;5002301;28;20554;-89
2022/09/05 03:28:19;;;;;;;4.23;3.83;;;20.80;52.90;;;;;;5005599;28;20479;-87
2022/09/05 03:31:13;;;;;;;3.70;3.40;;;20.80;53.30;;;;;;5052001;28;20448;-87
2022/09/05 03:34:03;;;;;;;4.10;3.67;;;20.80;53.30;;;;;;5062318;28;20456;-90
2022/09/05 03:37:00;;;;;;;4.17;3.50;;;20.70;53.20;;;;;;5033712;28;20482;-87
2022/09/05 03:40:00;;;;;;;4.47;4.07;;;20.70;53.20;;;;;;5075355;28;20816;-86
2022/09/05 03:42:55;;;;;;;4.40;3.90;;;20.70;53.10;;;;;;5073697;28;20457;-90
2022/09/05 03:45:57;;;;;;;5.10;4.57;;;20.70;53.10;;;;;;5078705;28;20432;-89
2022/09/05 03:48:52;;;;;;;4.30;3.90;;;20.70;53.10;;;;;;4967604;28;20473;-88
2022/09/05 03:51:31;;;;;;;5.53;4.60;;;20.60;53.40;;;;;;5080345;28;20804;-87
2022/09/05 03:54:32;;;;;;;5.87;4.50;;;20.60;54.00;;;;;;5044894;28;20498;-89
2022/09/05 03:57:24;;;;;;;4.47;4.07;;;20.60;54.50;;;;;;5057186;28;20570;-88
2022/09/05 04:00:07;;;;;;;5.30;4.20;;;20.60;54.20;;;;;;5042393;28;20521;-87
2022/09/05 04:02:40;;;;;;;5.00;4.60;;;20.60;54.40;;;;;;5040936;28;20882;-88
2022/09/05 04:05:15;;;;;;;5.30;4.73;;;20.60;54.90;;;;;;5071726;28;20484;-87
2022/09/05 04:07:45;;;;;;;4.80;4.40;;;20.60;54.30;;;;;;5022644;28;20801;-87
2022/09/05 04:10:30;;;;;;;4.57;4.17;;;20.60;54.20;;;;;;5043466;28;20506;-88
2022/09/05 04:13:02;;;;;;;4.77;4.33;;;20.60;54.10;;;;;;5058477;28;20464;-87
2022/09/05 04:15:36;;;;;;;5.70;4.47;;;20.60;54.00;;;;;;5045180;28;20503;-90
2022/09/05 04:18:11;;;;;;;5.20;4.50;;;20.30;54.80;;;;;;5054002;28;20501;-89
2022/09/05 04:20:46;;;;;;;5.03;4.63;;;20.30;54.40;;;;;;5074364;28;20509;-88
2022/09/05 04:23:28;;;;;;;4.53;4.13;;;20.40;54.30;;;;;;5074931;28;20463;-88
2022/09/05 04:26:09;;;;;;;4.70;3.90;;;20.40;53.80;;;;;;5071126;28;20470;-87
2022/09/05 04:28:53;;;;;;;4.77;4.33;;;20.40;53.90;;;;;;5046710;28;21122;-87
2022/09/05 04:31:30;;;;;;;4.80;4.37;;;20.40;54.00;;;;;;5061827;28;20960;-88
2022/09/05 04:34:13;;;;;;;6.77;4.30;;;20.30;53.60;;;;;;5075015;28;21093;-89
2022/09/05 04:36:41;;;;;;;4.07;3.67;;;20.30;54.20;;;;;;5057043;28;20471;-87
2022/09/05 04:39:24;;;;;;;4.90;4.40;;;20.30;53.70;;;;;;5023998;28;20548;-87
2022/09/05 04:41:56;;;;;;;5.57;4.97;;;20.30;53.50;;;;;;5058536;28;20966;-88
2022/09/05 04:44:29;;;;;;;5.10;4.50;;;20.30;53.60;;;;;;5061013;28;20809;-90
2022/09/05 04:46:58;;;;;;;5.73;4.70;;;20.30;53.50;;;;;;5057561;28;20460;-87
2022/09/05 04:49:27;;;;;;;4.77;4.33;;;20.30;53.50;;;;;;5073851;28;20461;-88
2022/09/05 04:52:23;;;;;;;10.87;5.33;;;20.30;53.60;;;;;;5057331;28;20494;-87
2022/09/05 04:54:54;;;;;;;4.53;4.13;;;20.30;53.50;;;;;;5030615;28;20819;-87
2022/09/05 04:57:28;;;;;;;5.47;4.37;;;20.30;53.30;;;;;;5042445;28;20476;-89
2022/09/05 05:00:02;;;;;;;4.50;4.10;;;20.30;53.20;;;;;;5058943;28;20467;-89
2022/09/05 05:02:35;;;;;;;5.53;4.23;;;20.30;53.20;;;;;;5058282;28;20457;-87
2022/09/05 05:05:06;;;;;;;4.80;4.40;;;20.20;53.00;;;;;;5059771;28;20446;-87
2022/09/05 05:07:47;;;;;;;5.83;3.83;;;20.20;53.20;;;;;;5044290;28;20463;-87
2022/09/05 05:10:22;;;;;;;5.83;4.70;;;20.20;53.50;;;;;;5074251;28;20440;-88
2022/09/05 05:13:08;;;;;;;4.70;4.30;;;20.20;54.10;;;;;;5080000;28;20439;-88
2022/09/05 05:15:45;;;;;;;4.60;4.20;;;20.20;54.50;;;;;;5045698;28;20806;-90
2022/09/05 05:18:21;;;;;;;5.60;4.90;;;20.20;54.70;;;;;;5054908;28;20464;-88
2022/09/05 05:20:56;;;;;;;5.27;4.77;;;20.20;54.90;;;;;;5068197;28;20443;-87
2022/09/05 05:23:33;;;;;;;4.83;4.43;;;20.20;55.30;;;;;;5062472;28;20819;-88
2022/09/05 05:26:03;;;;;;;5.50;4.30;;;20.20;55.00;;;;;;5074535;28;20526;-89
2022/09/05 05:28:49;;;;;;;5.23;4.80;;;20.30;54.90;;;;;;5039161;28;20445;-88
2022/09/05 05:31:20;;;;;;;4.97;4.47;;;20.30;54.80;;;;;;5076416;28;20476;-89
2022/09/05 05:33:50;;;;;;;4.97;4.47;;;20.30;54.70;;;;;;5058228;28;20558;-88
2022/09/05 05:36:22;;;;;;;4.77;4.07;;;20.30;54.70;;;;;;5057842;28;20486;-88
2022/09/05 05:38:57;;;;;;;5.30;4.80;;;20.30;54.50;;;;;;5048523;28;20964;-88
2022/09/05 05:41:27;;;;;;;4.80;4.30;;;20.30;54.70;;;;;;5045431;28;20825;-88
2022/09/05 05:43:56;;;;;;;6.97;4.17;;;20.30;54.80;;;;;;5051700;28;20996;-88
2022/09/05 05:46:44;;;;;;;8.13;5.30;;;20.40;55.10;;;;;;5056315;28;20488;-88
2022/09/05 05:49:34;;;;;;;4.83;4.43;;;20.30;55.20;;;;;;5076886;28;20440;-89
2022/09/05 05:52:28;;;;;;;4.70;4.30;;;20.40;55.50;;;;;;5076796;28;20474;-88
2022/09/05 05:55:02;;;;;;;4.93;4.53;;;20.40;55.60;;;;;;5072945;28;20474;-90
2022/09/05 05:57:51;;;;;;;4.87;4.37;;;20.40;55.80;;;;;;5043640;28;20482;-88
2022/09/05 06:00:24;;;;;;;5.07;4.67;;;20.40;55.70;;;;;;5050705;28;20460;-88
2022/09/05 06:03:27;;;;;;;5.43;4.93;;;20.40;55.70;;;;;;5025038;28;20465;-88
2022/09/05 06:06:07;;;;;;;6.30;4.67;;;20.50;55.80;;;;;;5035244;28;20901;-88
2022/09/05 06:08:58;;;;;;;5.50;4.90;;;20.50;56.10;;;;;;5057273;28;20970;-88
2022/09/05 06:12:15;;;;;;;5.60;4.67;;;20.50;56.20;;;;;;5075234;28;20502;-88
2022/09/05 06:15:24;;;;;;;5.63;4.67;;;20.50;55.90;;;;;;5044868;28;20461;-87
2022/09/05 06:18:24;;;;;;;5.57;5.07;;;20.50;56.10;;;;;;5046163;28;20447;-90
2022/09/05 06:21:24;;;;;;;5.30;4.80;;;20.50;56.10;;;;;;5047968;28;21313;-88
2022/09/05 06:24:30;;;;;;;5.50;5.00;;;20.60;56.00;;;;;;5059163;28;20524;-92
2022/09/05 06:27:28;;;;;;;12.73;5.20;;;20.60;56.20;;;;;;5037152;28;20490;-87
2022/09/05 06:30:00;;;;;;;8.80;5.73;;;20.60;56.50;;;;;;5045462;28;20464;-88
2022/09/05 06:32:41;;;;;;;7.40;5.30;;;20.50;56.60;;;;;;5033743;28;20969;-88
2022/09/05 06:35:22;;;;;;;8.40;6.10;;;20.60;57.00;;;;;;5045906;28;20476;-86
2022/09/05 06:38:07;;;;;;;7.47;5.67;;;20.70;56.50;;;;;;5065996;28;20943;-90
2022/09/05 06:40:41;;;;;;;11.10;5.80;;;20.70;56.30;;;;;;5039165;28;20455;-88
2022/09/05 06:43:23;;;;;;;9.87;6.00;;;20.70;56.00;;;;;;5016768;28;20800;-88
2022/09/05 06:46:13;;;;;;;10.00;6.10;;;20.70;56.10;;;;;;5039029;28;20526;-88
2022/09/05 06:48:47;;;;;;;5.73;5.13;;;20.80;56.20;;;;;;5058741;28;20456;-88
2022/09/05 06:51:46;;;;;;;6.63;5.43;;;20.80;56.20;;;;;;5052435;28;20530;-88
2022/09/05 06:54:33;;;;;;;6.77;5.03;;;20.90;56.30;;;;;;5040829;28;20455;-88
2022/09/05 06:58:02;;;;;;;8.00;6.10;;;20.90;56.40;;;;;;5070933;27;20576;-86
2022/09/05 07:00:36;;;;;;;6.30;5.53;;;21.00;56.40;;;;;;5021980;28;20654;-88
2022/09/05 07:03:20;;;;;;;6.33;5.80;;;21.00;56.40;;;;;;5036374;28;20451;-88
2022/09/05 07:05:54;;;;;;;6.47;5.80;;;21.10;56.40;;;;;;5060934;28;20528;-88
2022/09/05 07:08:30;;;;;;;19.07;6.30;;;21.10;56.50;;;;;;5043139;28;20479;-89
2022/09/05 07:11:03;;;;;;;15.63;5.80;;;21.10;56.40;;;;;;5040734;28;20447;-88
2022/09/05 07:13:36;;;;;;;25.93;6.00;;;21.00;56.50;;;;;;5060534;28;21232;-88
2022/09/05 07:16:15;;;;;;;22.77;6.03;;;21.00;56.80;;;;;;5060556;28;20457;-88
2022/09/05 07:18:51;;;;;;;15.13;6.30;;;21.20;56.80;;;;;;5043610;28;20445;-88
2022/09/05 07:21:23;;;;;;;19.90;6.47;;;21.20;56.60;;;;;;5062860;28;20448;-88
2022/09/05 07:23:55;;;;;;;14.03;5.97;;;21.30;56.50;;;;;;5061783;28;20459;-87
2022/09/05 07:26:23;;;;;;;37.33;6.40;;;21.30;56.30;;;;;;5052547;28;20457;-87
2022/09/05 07:28:57;;;;;;;20.17;5.60;;;21.30;56.50;;;;;;5066287;28;20469;-87
2022/09/05 07:31:27;;;;;;;23.70;6.43;;;21.30;56.60;;;;;;5070409;28;20474;-87
2022/09/05 07:34:08;;;;;;;17.47;5.30;;;21.40;56.10;;;;;;5047298;28;20444;-87
2022/09/05 07:36:40;;;;;;;19.70;6.73;;;21.40;56.00;;;;;;5050185;28;20483;-88
2022/09/05 07:39:10;;;;;;;26.37;5.23;;;21.40;56.30;;;;;;5080026;28;20448;-88
2022/09/05 07:41:40;;;;;;;5.40;4.60;;;21.50;56.40;;;;;;5082271;28;20455;-87
2022/09/05 07:44:15;;;;;;;19.63;4.97;;;21.60;56.60;;;;;;5031618;28;20452;-88
2022/09/05 07:46:44;;;;;;;10.57;5.77;;;21.60;56.40;;;;;;5055783;28;20489;-88
2022/09/05 07:49:15;;;;;;;13.33;4.77;;;21.70;56.40;;;;;;5053556;28;20451;-88
2022/09/05 07:51:50;;;;;;;13.83;5.50;;;21.80;56.40;;;;;;5046619;28;20483;-89
2022/09/05 07:54:24;;;;;;;8.87;5.10;;;21.90;56.30;;;;;;5081319;28;20455;-89
2022/09/05 07:56:54;;;;;;;5.00;4.20;;;21.90;56.50;;;;;;5046913;28;20471;-87
2022/09/05 07:59:25;;;;;;;7.40;4.60;;;21.90;56.90;;;;;;5062539;28;20451;-88
2022/09/05 08:01:54;;;;;;;5.07;3.93;;;22.00;55.80;;;;;;5030487;28;20452;-90
2022/09/05 08:04:25;;;;;;;6.10;3.90;;;22.10;55.70;;;;;;5061063;28;20439;-88
2022/09/05 08:06:53;;;;;;;4.87;4.47;;;22.20;55.80;;;;;;5057745;28;20486;-88
2022/09/05 08:09:25;;;;;;;7.37;4.90;;;22.30;56.00;;;;;;5061116;28;20455;-87
2022/09/05 08:11:54;;;;;;;9.60;4.70;;;22.40;56.60;;;;;;5063093;28;20445;-88
2022/09/05 08:14:40;;;;;;;4.90;4.40;;;22.60;56.00;;;;;;5012729;28;20909;-88
2022/09/05 08:17:12;;;;;;;8.23;4.37;;;22.60;55.70;;;;;;5044545;28;20516;-89
2022/09/05 08:19:55;;;;;;;5.77;4.20;;;22.70;55.60;;;;;;5045380;28;21022;-87
2022/09/05 08:22:26;;;;;;;5.77;3.87;;;22.70;55.70;;;;;;5066354;28;20472;-89
2022/09/05 08:25:02;;;;;;;9.13;4.33;;;22.90;55.60;;;;;;5049596;28;20841;-88
2022/09/05 08:27:35;;;;;;;5.03;4.13;;;23.00;55.70;;;;;;5048034;28;20472;-88
2022/09/05 08:30:07;;;;;;;4.23;3.83;;;23.20;55.20;;;;;;5064780;28;20443;-89
2022/09/05 08:32:43;;;;;;;4.20;3.70;;;23.30;55.10;;;;;;5028845;28;20835;-88
2022/09/05 08:35:17;;;;;;;4.60;3.67;;;23.40;54.80;;;;;;5044229;28;20539;-88
2022/09/05 08:37:46;;;;;;;5.03;3.93;;;23.50;54.90;;;;;;5023071;28;20544;-88
2022/09/05 08:40:24;;;;;;;7.70;3.90;;;23.50;54.60;;;;;;5068397;28;20456;-88
2022/09/05 08:42:59;;;;;;;6.37;3.90;;;23.70;54.30;;;;;;5033049;28;20456;-88
2022/09/05 08:45:37;;;;;;;7.93;3.63;;;23.80;53.90;;;;;;5046294;28;20452;-88
2022/09/05 08:48:18;;;;;;;12.63;3.90;;;23.90;53.90;;;;;;5047625;28;20522;-88
2022/09/05 08:51:18;;;;;;;8.33;3.87;;;24.10;53.60;;;;;;5048034;28;20943;-88
2022/09/05 08:54:06;;;;;;;4.83;3.63;;;24.30;53.40;;;;;;5065756;28;20815;-89
2022/09/05 08:56:41;;;;;;;4.43;3.30;;;24.40;53.10;;;;;;5043227;28;20523;-89
2022/09/05 08:59:25;;;;;;;6.90;3.60;;;24.50;53.00;;;;;;5053171;28;20448;-88
2022/09/05 09:02:10;;;;;;;18.63;4.43;;;24.60;52.60;;;;;;5065038;28;20472;-88
2022/09/05 09:04:41;;;;;;;4.00;3.60;;;24.70;52.60;;;;;;5045651;28;20526;-89
2022/09/05 09:07:14;;;;;;;4.90;4.40;;;24.80;52.40;;;;;;5060596;28;20452;-88
2022/09/05 09:09:52;;;;;;;6.30;3.73;;;24.70;52.40;;;;;;5062121;28;20949;-88
2022/09/05 09:12:47;;;;;;;5.70;3.73;;;24.80;52.80;;;;;;5043538;28;20479;-89
2022/09/05 09:15:20;;;;;;;4.13;3.70;;;25.00;52.00;;;;;;5029039;28;20464;-88
2022/09/05 09:17:49;;;;;;;5.57;3.37;;;25.20;51.40;;;;;;5049280;28;20490;-88
2022/09/05 09:20:29;;;;;;;7.40;3.50;;;25.40;51.20;;;;;;5044814;28;20560;-89
2022/09/05 09:23:02;;;;;;;4.67;3.10;;;25.70;50.80;;;;;;5035589;28;20444;-88
2022/09/05 09:25:36;;;;;;;4.53;3.20;;;25.90;50.40;;;;;;5042825;28;20458;-90
2022/09/05 09:28:37;;;;;;;5.83;3.23;;;26.10;49.90;;;;;;5029512;28;20455;-87
2022/09/05 09:31:11;;;;;;;9.10;3.53;;;26.40;49.30;;;;;;5063556;28;20519;-88
2022/09/05 09:33:45;;;;;;;3.90;3.50;;;26.70;48.80;;;;;;5063044;28;20436;-88
2022/09/05 09:36:34;;;;;;;3.50;3.07;;;27.00;48.20;;;;;;5042693;28;20839;-90
2022/09/05 09:39:11;;;;;;;4.20;3.23;;;27.10;47.50;;;;;;5048351;28;20681;-87
2022/09/05 09:41:49;;;;;;;6.00;2.93;;;27.30;47.00;;;;;;5047115;28;20448;-88
2022/09/05 09:44:52;;;;;;;5.63;2.57;;;27.60;47.30;;;;;;5043926;28;20448;-87
2022/09/05 09:47:34;;;;;;;3.90;2.77;;;27.80;45.80;;;;;;5029212;28;20472;-87
2022/09/05 09:50:18;;;;;;;6.87;3.27;;;28.10;46.30;;;;;;5033101;28;20479;-87
2022/09/05 09:53:11;;;;;;;4.87;2.80;;;28.20;45.60;;;;;;5062562;28;20451;-87
2022/09/05 09:56:30;;;;;;;4.33;2.90;;;28.50;44.50;;;;;;5044134;28;20463;-88
2022/09/05 09:59:22;;;;;;;3.30;3.00;;;28.70;43.90;;;;;;5044419;28;20925;-88
2022/09/05 10:02:01;;;;;;;3.00;2.70;;;28.70;43.50;;;;;;5062764;28;20803;-88
2022/09/05 10:04:49;;;;;;;2.67;2.43;;;28.70;43.40;;;;;;5063392;28;20962;-88
2022/09/05 10:07:41;;;;;;;2.93;2.40;;;28.80;43.70;;;;;;5043944;28;20492;-89
2022/09/05 10:10:30;;;;;;;2.17;2.03;;;28.90;41.80;;;;;;5062134;28;20552;-87
2022/09/05 10:13:24;;;;;;;2.67;2.47;;;28.90;42.40;;;;;;5045059;28;20484;-88
2022/09/05 10:16:33;;;;;;;2.37;2.13;;;29.30;42.40;;;;;;5063325;28;20534;-89
2022/09/05 10:19:35;;;;;;;3.47;2.70;;;29.70;41.00;;;;;;5037062;28;21029;-88
2022/09/05 10:22:23;;;;;;;2.40;1.70;;;29.80;39.10;;;;;;5034262;28;20955;-88
2022/09/05 10:25:21;;;;;;;2.80;1.93;;;30.00;37.90;;;;;;5025617;28;20453;-88
2022/09/05 10:28:05;;;;;;;2.10;1.90;;;30.30;35.80;;;;;;4972882;28;20546;-87
2022/09/05 10:30:46;;;;;;;2.30;1.43;;;30.60;35.00;;;;;;5045657;28;20459;-87
2022/09/05 10:33:29;;;;;;;1.90;1.80;;;30.60;32.70;;;;;;5061070;28;20484;-88
2022/09/05 10:36:16;;;;;;;3.00;1.70;;;30.30;34.00;;;;;;5061284;28;20479;-88
2022/09/05 10:38:49;;;;;;;1.63;1.50;;;30.50;33.50;;;;;;5044604;28;20465;-88
2022/09/05 10:41:21;;;;;;;1.73;1.63;;;30.90;33.40;;;;;;5062812;28;20469;-88
2022/09/05 10:43:53;;;;;;;2.57;1.60;;;31.10;33.30;;;;;;5057196;28;20438;-88
2022/09/05 10:46:37;;;;;;;4.00;2.50;;;31.10;32.80;;;;;;5019613;28;20452;-88
2022/09/05 10:49:09;;;;;;;1.70;1.60;;;31.30;32.50;;;;;;5061845;28;20448;-87
2022/09/05 10:51:48;;;;;;;1.90;1.47;;;31.20;30.30;;;;;;5061485;28;21508;-87
2022/09/05 10:54:28;;;;;;;1.57;1.47;;;31.50;31.90;;;;;;5060899;28;20443;-87
2022/09/05 10:57:08;;;;;;;1.77;1.50;;;31.90;32.30;;;;;;5042049;28;20570;-88
2022/09/05 10:59:55;;;;;;;2.33;1.90;;;32.30;30.90;;;;;;5059932;28;20445;-92
2022/09/05 11:02:24;;;;;;;1.57;1.47;;;32.40;30.80;;;;;;5042561;28;20454;-88
2022/09/05 11:05:04;;;;;;;1.90;1.47;;;32.50;30.20;;;;;;5060633;28;21154;-87
2022/09/05 11:07:38;;;;;;;2.73;2.00;;;32.80;29.90;;;;;;5045534;28;20940;-88
2022/09/05 11:10:11;;;;;;;2.10;1.87;;;32.90;29.50;;;;;;5038998;28;20449;-87
2022/09/05 11:12:55;;;;;;;1.80;1.70;;;32.90;29.80;;;;;;5058345;28;20439;-89
2022/09/05 11:15:30;;;;;;;1.87;1.77;;;33.10;29.10;;;;;;5060031;28;20449;-87
2022/09/05 11:18:03;;;;;;;2.93;1.70;;;33.40;28.10;;;;;;5039847;28;20480;-88
2022/09/05 11:20:48;;;;;;;1.63;1.53;;;33.40;28.70;;;;;;5043779;28;20825;-88
2022/09/05 11:23:20;;;;;;;3.73;1.53;;;33.60;27.00;;;;;;5042718;28;20459;-89
2022/09/05 11:25:52;;;;;;;1.80;1.70;;;33.50;27.00;;;;;;5054883;28;20461;-87
2022/09/05 11:28:29;;;;;;;2.57;1.77;;;33.20;28.60;;;;;;5040906;28;21329;-88
2022/09/05 11:30:59;;;;;;;2.23;1.60;;;33.10;28.10;;;;;;5042980;28;20447;-88
2022/09/05 11:34:11;;;;;;;1.67;1.57;;;33.00;28.50;;;;;;5046358;28;20443;-87
2022/09/05 11:36:45;;;;;;;2.23;1.53;;;33.40;28.40;;;;;;5042108;28;20538;-88
2022/09/05 11:39:24;;;;;;;3.10;1.50;;;33.70;28.50;;;;;;5045493;28;20445;-90
2022/09/05 11:42:31;;;;;;;1.57;1.47;;;33.60;26.60;;;;;;5044645;28;21133;-87
2022/09/05 11:45:28;;;;;;;1.47;1.37;;;33.50;27.90;;;;;;5063439;28;20447;-89
2022/09/05 11:48:21;;;;;;;1.80;1.70;;;33.80;27.80;;;;;;5020783;28;20476;-88
2022/09/05 11:51:18;;;;;;;1.60;1.50;;;34.30;27.90;;;;;;5065572;28;20552;-88
2022/09/05 11:54:42;;;;;;;2.13;1.40;;;34.70;27.00;;;;;;5059164;28;21331;-88
2022/09/05 11:57:35;;;;;;;2.00;1.90;;;34.90;26.40;;;;;;5033916;28;20487;-87
2022/09/05 12:00:12;;;;;;;2.60;1.43;;;34.90;26.20;;;;;;5041115;28;20453;-88
2022/09/05 12:03:18;;;;;;;4.27;1.53;;;35.00;25.40;;;;;;5059671;28;20865;-88
2022/09/05 12:06:20;;;;;;;6.10;1.63;;;34.40;25.00;;;;;;4960567;28;20460;-89
2022/09/05 12:08:54;;;;;;;1.70;1.60;;;34.40;26.40;;;;;;4957477;28;20456;-90
2022/09/05 12:11:38;;;;;;;1.70;1.60;;;34.10;25.30;;;;;;5012367;28;21461;-89
2022/09/05 12:14:31;;;;;;;1.67;1.57;;;33.30;25.90;;;;;;5046086;28;20443;-86
2022/09/05 12:17:04;;;;;;;2.07;1.63;;;33.20;26.80;;;;;;5046577;28;20479;-87
2022/09/05 12:19:37;;;;;;;1.60;1.50;;;33.20;27.30;;;;;;5065126;28;20447;-88
2022/09/05 12:22:32;;;;;;;2.13;1.93;;;33.20;27.00;;;;;;5059108;28;20465;-88
2022/09/05 12:25:36;;;;;;;1.90;1.80;;;33.00;27.70;;;;;;5038478;28;20499;-88
2022/09/05 12:28:06;;;;;;;2.07;1.40;;;33.00;27.90;;;;;;5044257;28;20483;-88
2022/09/05 12:30:36;;;;;;;1.93;1.83;;;33.10;27.40;;;;;;5062417;28;20534;-88
2022/09/05 12:33:15;;;;;;;1.90;1.70;;;33.10;26.70;;;;;;5019619;28;20477;-89
2022/09/05 12:35:47;;;;;;;1.60;1.50;;;33.10;27.40;;;;;;5043439;28;20468;-88
2022/09/05 12:38:32;;;;;;;1.70;1.60;;;33.20;27.70;;;;;;5062963;28;20484;-88
2022/09/05 12:41:06;;;;;;;1.73;1.63;;;33.10;26.50;;;;;;5063410;28;20476;-88
2022/09/05 12:43:34;;;;;;;3.60;1.93;;;33.10;27.30;;;;;;5046908;28;20452;-87
2022/09/05 12:46:07;;;;;;;3.80;2.10;;;32.90;27.70;;;;;;5063112;28;20488;-87
2022/09/05 12:48:40;;;;;;;3.57;1.70;;;32.90;27.80;;;;;;5043181;28;20449;-87
2022/09/05 12:51:11;;;;;;;4.53;1.97;;;32.90;28.30;;;;;;5065064;28;20454;-88
2022/09/05 12:53:47;;;;;;;2.43;1.60;;;33.20;27.80;;;;;;5060628;28;20452;-88
2022/09/05 12:56:22;;;;;;;2.23;2.10;;;33.60;27.50;;;;;;5047414;28;20459;-88
2022/09/05 12:58:51;;;;;;;1.77;1.67;;;33.60;26.70;;;;;;5031060;28;20476;-89
2022/09/05 13:01:23;;;;;;;2.07;1.70;;;33.90;26.70;;;;;;5062048;28;20456;-87
2022/09/05 13:03:52;;;;;;;1.80;1.70;;;34.10;26.20;;;;;;5062214;28;20438;-88
2022/09/05 13:06:23;;;;;;;3.27;1.60;;;33.90;26.60;;;;;;5042227;28;20508;-88
2022/09/05 13:08:56;;;;;;;1.67;1.40;;;34.00;26.50;;;;;;5063048;28;20448;-89
2022/09/05 13:11:24;;;;;;;3.13;1.70;;;34.00;26.40;;;;;;5045627;28;20452;-88
2022/09/05 13:13:53;;;;;;;2.10;1.90;;;34.20;26.00;;;;;;5031926;28;20453;-88
2022/09/05 13:16:23;;;;;;;1.60;1.50;;;34.50;26.90;;;;;;5028344;28;20465;-89
2022/09/05 13:18:55;;;;;;;1.50;1.37;;;34.70;25.90;;;;;;5058747;28;20800;-89
2022/09/05 13:21:26;;;;;;;1.80;1.70;;;34.80;26.00;;;;;;5059259;28;20445;-89
2022/09/05 13:24:04;;;;;;;5.40;1.70;;;35.00;26.10;;;;;;5051942;28;20896;-89
2022/09/05 13:26:38;;;;;;;1.30;1.20;;;35.40;25.40;;;;;;5045399;28;20533;-88
2022/09/05 13:29:13;;;;;;;1.90;1.70;;;34.90;25.30;;;;;;5066376;28;20437;-88
2022/09/05 13:32:00;;;;;;;1.60;1.50;;;34.70;25.70;;;;;;5062818;28;20448;-88
2022/09/05 13:34:30;;;;;;;2.03;1.53;;;34.30;25.70;;;;;;5060922;28;21091;-88
2022/09/05 13:37:02;;;;;;;1.90;1.70;;;34.30;25.70;;;;;;5060388;28;20461;-89
2022/09/05 13:39:42;;;;;;;2.53;1.63;;;34.30;25.80;;;;;;5063539;28;20443;-88
2022/09/05 13:42:17;;;;;;;2.00;1.80;;;34.60;25.60;;;;;;5061632;28;20442;-88
2022/09/05 13:44:46;;;;;;;1.80;1.70;;;34.60;25.60;;;;;;5060752;28;20519;-89
2022/09/05 13:47:26;;;;;;;1.53;1.43;;;34.50;25.70;;;;;;5044999;28;20480;-88
2022/09/05 13:50:07;;;;;;;1.50;1.40;;;34.70;25.40;;;;;;5063503;28;20476;-88
2022/09/05 13:52:38;;;;;;;1.53;1.43;;;34.90;25.30;;;;;;5062161;28;20444;-89
2022/09/05 13:55:20;;;;;;;1.60;1.50;;;35.20;25.00;;;;;;5048188;28;20505;-88